sensor_id;sensor_type;location;lat;lon;timestamp;temperature;humidity
22578;DHT22;11455;52.390;13.028;2023-04-01T00:01:37;12.10;1.00
22578;DHT22;11455;52.390;13.028;2023-04-01T00:04:03;12.10;1.00
22578;DHT22;11455;52.390;13.028;2023-04-01T00:06:29;12.10;1.00
22578;DHT22;11455;52.390;13.028;2023-04-01T00:08:57;12.10;1.00
22578;DHT22;11455;52.390;13.028;2023-04-01T00:11:25;12.10;1.00
22578;DHT22;11455;52.390;13.028;2023-04-01T00:13:52;12.10;1.00
22578;DHT22;11455;52.390;13.028;2023-04-01T00:16:18;12.10;1.00
22578;DHT22;11455;52.390;13.028;2023-04-01T00:18:44;12.20;1.00
22578;DHT22;11455;52.390;13.028;2023-04-01T00:21:12;12.10;1.00
22578;DHT22;11455;52.390;13.028;2023-04-01T00:23:38;12.20;1.00
22578;DHT22;11455;52.390;13.028;2023-04-01T00:26:03;12.20;1.00
22578;DHT22;11455;52.390;13.028;2023-04-01T00:28:31;12.20;1.00
22578;DHT22;11455;52.390;13.028;2023-04-01T00:30:59;12.20;1.00
22578;DHT22;11455;52.390;13.028;2023-04-01T00:33:28;12.20;1.00
22578;DHT22;11455;52.390;13.028;2023-04-01T00:35:55;12.20;1.00
22578;DHT22;11455;52.390;13.028;2023-04-01T00:38:21;12.20;1.00
22578;DHT22;11455;52.390;13.028;2023-04-01T00:40:47;12.20;1.00
22578;DHT22;11455;52.390;13.028;2023-04-01T00:43:19;12.20;99.90
22578;DHT22;11455;52.390;13.028;2023-04-01T00:45:46;12.20;99.90
22578;DHT22;11455;52.390;13.028;2023-04-01T00:48:19;12.20;99.90
22578;DHT22;11455;52.390;13.028;2023-04-01T00:50:49;12.20;99.90
22578;DHT22;11455;52.390;13.028;2023-04-01T00:53:16;12.20;1.00
22578;DHT22;11455;52.390;13.028;2023-04-01T00:55:54;12.20;1.00
22578;DHT22;11455;52.390;13.028;2023-04-01T00:58:22;12.20;99.90
22578;DHT22;11455;52.390;13.028;2023-04-01T01:00:49;12.20;1.00
22578;DHT22;11455;52.390;13.028;2023-04-01T01:03:16;12.20;1.00
22578;DHT22;11455;52.390;13.028;2023-04-01T01:06:06;12.10;1.00
22578;DHT22;11455;52.390;13.028;2023-04-01T01:11:13;12.10;1.00
22578;DHT22;11455;52.390;13.028;2023-04-01T01:16:20;12.10;1.00
22578;DHT22;11455;52.390;13.028;2023-04-01T01:18:54;12.10;1.00
22578;DHT22;11455;52.390;13.028;2023-04-01T01:21:29;12.10;1.00
22578;DHT22;11455;52.390;13.028;2023-04-01T01:26:46;12.10;1.00
22578;DHT22;11455;52.390;13.028;2023-04-01T01:34:28;12.20;1.00
22578;DHT22;11455;52.390;13.028;2023-04-01T01:36:59;12.20;1.00
22578;DHT22;11455;52.390;13.028;2023-04-01T01:39:27;12.10;1.00
22578;DHT22;11455;52.390;13.028;2023-04-01T01:41:58;12.10;1.00
22578;DHT22;11455;52.390;13.028;2023-04-01T01:44:27;12.10;1.00
22578;DHT22;11455;52.390;13.028;2023-04-01T01:46:53;12.00;1.00
22578;DHT22;11455;52.390;13.028;2023-04-01T01:49:20;12.00;1.00
22578;DHT22;11455;52.390;13.028;2023-04-01T01:51:46;12.00;1.00
22578;DHT22;11455;52.390;13.028;2023-04-01T01:54:14;12.00;1.00
22578;DHT22;11455;52.390;13.028;2023-04-01T01:56:41;12.00;1.00
22578;DHT22;11455;52.390;13.028;2023-04-01T01:59:08;12.10;1.00
22578;DHT22;11455;52.390;13.028;2023-04-01T02:01:35;12.10;1.00
22578;DHT22;11455;52.390;13.028;2023-04-01T02:04:09;12.10;1.00
22578;DHT22;11455;52.390;13.028;2023-04-01T02:06:37;12.00;1.00
22578;DHT22;11455;52.390;13.028;2023-04-01T02:09:04;12.00;1.00
22578;DHT22;11455;52.390;13.028;2023-04-01T02:14:12;12.10;1.00
22578;DHT22;11455;52.390;13.028;2023-04-01T02:19:10;12.10;1.00
22578;DHT22;11455;52.390;13.028;2023-04-01T02:21:37;12.10;1.00
22578;DHT22;11455;52.390;13.028;2023-04-01T02:24:06;12.10;1.00
22578;DHT22;11455;52.390;13.028;2023-04-01T02:26:33;12.10;1.00
22578;DHT22;11455;52.390;13.028;2023-04-01T02:28:59;12.10;1.00
22578;DHT22;11455;52.390;13.028;2023-04-01T02:31:26;12.10;1.00
22578;DHT22;11455;52.390;13.028;2023-04-01T02:33:52;12.10;1.00
22578;DHT22;11455;52.390;13.028;2023-04-01T02:36:18;12.10;1.00
22578;DHT22;11455;52.390;13.028;2023-04-01T02:38:44;12.10;1.00
22578;DHT22;11455;52.390;13.028;2023-04-01T02:41:10;12.10;1.00
22578;DHT22;11455;52.390;13.028;2023-04-01T02:43:36;12.10;1.00
22578;DHT22;11455;52.390;13.028;2023-04-01T02:46:02;12.00;1.00
22578;DHT22;11455;52.390;13.028;2023-04-01T02:48:28;12.00;1.00
22578;DHT22;11455;52.390;13.028;2023-04-01T02:50:54;11.90;1.00
22578;DHT22;11455;52.390;13.028;2023-04-01T02:53:21;11.90;1.00
22578;DHT22;11455;52.390;13.028;2023-04-01T02:55:46;12.00;1.00
22578;DHT22;11455;52.390;13.028;2023-04-01T02:58:16;12.00;1.00
22578;DHT22;11455;52.390;13.028;2023-04-01T03:00:41;12.00;1.00
22578;DHT22;11455;52.390;13.028;2023-04-01T03:03:07;12.10;1.00
22578;DHT22;11455;52.390;13.028;2023-04-01T03:05:33;12.10;1.00
22578;DHT22;11455;52.390;13.028;2023-04-01T03:07:59;12.10;1.00
22578;DHT22;11455;52.390;13.028;2023-04-01T03:10:24;12.10;1.00
22578;DHT22;11455;52.390;13.028;2023-04-01T03:12:50;12.10;1.00
22578;DHT22;11455;52.390;13.028;2023-04-01T03:15:16;12.10;1.00
22578;DHT22;11455;52.390;13.028;2023-04-01T03:17:42;12.10;1.00
22578;DHT22;11455;52.390;13.028;2023-04-01T03:20:08;12.10;1.00
22578;DHT22;11455;52.390;13.028;2023-04-01T03:22:36;12.10;1.00
22578;DHT22;11455;52.390;13.028;2023-04-01T03:25:03;12.10;1.00
22578;DHT22;11455;52.390;13.028;2023-04-01T03:27:29;12.10;1.00
22578;DHT22;11455;52.390;13.028;2023-04-01T03:29:56;12.10;1.00
22578;DHT22;11455;52.390;13.028;2023-04-01T03:32:22;12.10;1.00
22578;DHT22;11455;52.390;13.028;2023-04-01T03:34:48;12.10;1.00
22578;DHT22;11455;52.390;13.028;2023-04-01T03:37:14;12.00;1.00
22578;DHT22;11455;52.390;13.028;2023-04-01T03:39:39;12.00;1.00
22578;DHT22;11455;52.390;13.028;2023-04-01T03:42:05;12.00;1.00
22578;DHT22;11455;52.390;13.028;2023-04-01T03:44:32;12.00;1.00
22578;DHT22;11455;52.390;13.028;2023-04-01T03:46:58;12.00;1.00
22578;DHT22;11455;52.390;13.028;2023-04-01T03:49:23;12.00;1.00
22578;DHT22;11455;52.390;13.028;2023-04-01T03:51:49;12.00;1.00
22578;DHT22;11455;52.390;13.028;2023-04-01T03:54:15;12.00;1.00
22578;DHT22;11455;52.390;13.028;2023-04-01T03:56:42;12.00;1.00
22578;DHT22;11455;52.390;13.028;2023-04-01T03:59:08;12.00;1.00
22578;DHT22;11455;52.390;13.028;2023-04-01T04:01:34;12.00;1.00
22578;DHT22;11455;52.390;13.028;2023-04-01T04:04:00;12.00;1.00
22578;DHT22;11455;52.390;13.028;2023-04-01T04:06:26;12.00;1.00
22578;DHT22;11455;52.390;13.028;2023-04-01T04:08:52;12.00;1.00
22578;DHT22;11455;52.390;13.028;2023-04-01T04:11:18;12.00;1.00
22578;DHT22;11455;52.390;13.028;2023-04-01T04:13:44;12.10;1.00
22578;DHT22;11455;52.390;13.028;2023-04-01T04:16:10;12.00;1.00
22578;DHT22;11455;52.390;13.028;2023-04-01T04:18:40;12.00;1.00
22578;DHT22;11455;52.390;13.028;2023-04-01T04:21:11;12.00;1.00
22578;DHT22;11455;52.390;13.028;2023-04-01T04:23:36;12.00;1.00
22578;DHT22;11455;52.390;13.028;2023-04-01T04:26:04;12.10;1.00
22578;DHT22;11455;52.390;13.028;2023-04-01T04:28:30;12.10;1.00
22578;DHT22;11455;52.390;13.028;2023-04-01T04:30:57;12.00;1.00
22578;DHT22;11455;52.390;13.028;2023-04-01T04:33:23;12.00;1.00
22578;DHT22;11455;52.390;13.028;2023-04-01T04:35:54;12.00;1.00
22578;DHT22;11455;52.390;13.028;2023-04-01T04:38:21;12.00;1.00
22578;DHT22;11455;52.390;13.028;2023-04-01T04:40:47;12.00;1.00
22578;DHT22;11455;52.390;13.028;2023-04-01T04:43:13;12.00;1.00
22578;DHT22;11455;52.390;13.028;2023-04-01T04:45:39;12.00;1.00
22578;DHT22;11455;52.390;13.028;2023-04-01T04:48:05;12.00;1.00
22578;DHT22;11455;52.390;13.028;2023-04-01T04:50:31;12.00;1.00
22578;DHT22;11455;52.390;13.028;2023-04-01T04:52:57;12.00;1.00
22578;DHT22;11455;52.390;13.028;2023-04-01T04:55:23;12.00;1.00
22578;DHT22;11455;52.390;13.028;2023-04-01T04:58:00;12.00;1.00
22578;DHT22;11455;52.390;13.028;2023-04-01T05:00:26;12.00;1.00
22578;DHT22;11455;52.390;13.028;2023-04-01T05:02:56;12.00;1.00
22578;DHT22;11455;52.390;13.028;2023-04-01T05:05:22;12.00;1.00
22578;DHT22;11455;52.390;13.028;2023-04-01T05:07:48;12.00;1.00
22578;DHT22;11455;52.390;13.028;2023-04-01T05:10:14;12.00;1.00
22578;DHT22;11455;52.390;13.028;2023-04-01T05:12:39;12.10;1.00
22578;DHT22;11455;52.390;13.028;2023-04-01T05:15:08;12.10;1.00
22578;DHT22;11455;52.390;13.028;2023-04-01T05:17:34;12.10;1.00
22578;DHT22;11455;52.390;13.028;2023-04-01T05:20:01;12.10;1.00
22578;DHT22;11455;52.390;13.028;2023-04-01T05:22:28;12.20;1.00
22578;DHT22;11455;52.390;13.028;2023-04-01T05:24:53;12.20;1.00
22578;DHT22;11455;52.390;13.028;2023-04-01T05:27:19;12.10;1.00
22578;DHT22;11455;52.390;13.028;2023-04-01T05:29:45;12.20;1.00
22578;DHT22;11455;52.390;13.028;2023-04-01T05:32:36;12.10;1.00
22578;DHT22;11455;52.390;13.028;2023-04-01T05:35:01;12.20;1.00
22578;DHT22;11455;52.390;13.028;2023-04-01T05:37:29;12.20;1.00
22578;DHT22;11455;52.390;13.028;2023-04-01T05:39:55;12.20;1.00
22578;DHT22;11455;52.390;13.028;2023-04-01T05:42:21;12.20;1.00
22578;DHT22;11455;52.390;13.028;2023-04-01T05:44:47;12.20;1.00
22578;DHT22;11455;52.390;13.028;2023-04-01T05:47:31;12.20;1.00
22578;DHT22;11455;52.390;13.028;2023-04-01T05:49:57;12.20;1.00
22578;DHT22;11455;52.390;13.028;2023-04-01T05:52:23;12.10;1.00
22578;DHT22;11455;52.390;13.028;2023-04-01T05:54:49;12.00;1.00
22578;DHT22;11455;52.390;13.028;2023-04-01T05:57:19;12.00;1.00
22578;DHT22;11455;52.390;13.028;2023-04-01T05:59:46;12.10;1.00
22578;DHT22;11455;52.390;13.028;2023-04-01T06:02:12;12.20;1.00
22578;DHT22;11455;52.390;13.028;2023-04-01T06:04:38;12.20;1.00
22578;DHT22;11455;52.390;13.028;2023-04-01T06:07:14;12.20;1.00
22578;DHT22;11455;52.390;13.028;2023-04-01T06:09:40;12.10;1.00
22578;DHT22;11455;52.390;13.028;2023-04-01T06:14:51;12.20;1.00
22578;DHT22;11455;52.390;13.028;2023-04-01T06:22:27;12.30;1.00
22578;DHT22;11455;52.390;13.028;2023-04-01T06:25:00;12.30;1.00
22578;DHT22;11455;52.390;13.028;2023-04-01T06:30:49;12.40;1.00
22578;DHT22;11455;52.390;13.028;2023-04-01T06:41:06;12.50;1.00
22578;DHT22;11455;52.390;13.028;2023-04-01T06:55:32;12.50;1.00
22578;DHT22;11455;52.390;13.028;2023-04-01T06:58:46;12.50;1.00
22578;DHT22;11455;52.390;13.028;2023-04-01T07:01:16;12.50;1.00
22578;DHT22;11455;52.390;13.028;2023-04-01T07:03:55;12.60;1.00
22578;DHT22;11455;52.390;13.028;2023-04-01T07:06:30;12.60;1.00
22578;DHT22;11455;52.390;13.028;2023-04-01T07:08:58;12.60;1.00
22578;DHT22;11455;52.390;13.028;2023-04-01T07:11:34;12.70;1.00
22578;DHT22;11455;52.390;13.028;2023-04-01T07:14:30;12.70;1.00
22578;DHT22;11455;52.390;13.028;2023-04-01T07:17:17;12.70;1.00
22578;DHT22;11455;52.390;13.028;2023-04-01T07:22:29;12.70;1.00
22578;DHT22;11455;52.390;13.028;2023-04-01T07:25:18;12.80;99.90
22578;DHT22;11455;52.390;13.028;2023-04-01T07:27:54;12.90;99.90
22578;DHT22;11455;52.390;13.028;2023-04-01T07:30:22;12.90;99.90
22578;DHT22;11455;52.390;13.028;2023-04-01T07:40:36;12.80;99.90
22578;DHT22;11455;52.390;13.028;2023-04-01T07:43:11;12.80;99.90
22578;DHT22;11455;52.390;13.028;2023-04-01T07:53:38;12.80;99.90
22578;DHT22;11455;52.390;13.028;2023-04-01T07:56:18;12.80;99.90
22578;DHT22;11455;52.390;13.028;2023-04-01T08:04:26;12.80;99.90
22578;DHT22;11455;52.390;13.028;2023-04-01T08:07:17;12.90;99.90
22578;DHT22;11455;52.390;13.028;2023-04-01T08:21:28;13.20;99.90
22578;DHT22;11455;52.390;13.028;2023-04-01T08:23:58;13.20;99.90
22578;DHT22;11455;52.390;13.028;2023-04-01T08:26:28;13.30;99.90
22578;DHT22;11455;52.390;13.028;2023-04-01T08:31:30;13.20;99.90
22578;DHT22;11455;52.390;13.028;2023-04-01T08:33:57;13.30;99.90
22578;DHT22;11455;52.390;13.028;2023-04-01T08:36:24;13.20;99.90
22578;DHT22;11455;52.390;13.028;2023-04-01T08:39:09;13.30;99.90
22578;DHT22;11455;52.390;13.028;2023-04-01T08:42:17;13.30;99.90
22578;DHT22;11455;52.390;13.028;2023-04-01T08:45:07;13.30;99.90
22578;DHT22;11455;52.390;13.028;2023-04-01T08:47:56;13.30;99.90
22578;DHT22;11455;52.390;13.028;2023-04-01T08:53:43;13.30;99.90
22578;DHT22;11455;52.390;13.028;2023-04-01T09:07:01;13.20;99.90
22578;DHT22;11455;52.390;13.028;2023-04-01T09:33:09;13.10;1.00
22578;DHT22;11455;52.390;13.028;2023-04-01T09:40:51;13.10;1.00
22578;DHT22;11455;52.390;13.028;2023-04-01T09:43:35;13.10;1.00
22578;DHT22;11455;52.390;13.028;2023-04-01T09:48:51;13.10;1.00
22578;DHT22;11455;52.390;13.028;2023-04-01T09:54:24;13.00;1.00
22578;DHT22;11455;52.390;13.028;2023-04-01T09:56:58;13.10;1.00
22578;DHT22;11455;52.390;13.028;2023-04-01T10:00:29;13.10;1.00
22578;DHT22;11455;52.390;13.028;2023-04-01T10:15:59;13.20;1.00
22578;DHT22;11455;52.390;13.028;2023-04-01T10:23:45;13.10;1.00
22578;DHT22;11455;52.390;13.028;2023-04-01T10:47:16;12.50;1.00
22578;DHT22;11455;52.390;13.028;2023-04-01T11:13:21;12.50;1.00
22578;DHT22;11455;52.390;13.028;2023-04-01T11:26:07;12.30;1.00
22578;DHT22;11455;52.390;13.028;2023-04-01T11:29:02;12.30;1.00
22578;DHT22;11455;52.390;13.028;2023-04-01T11:42:05;12.30;1.00
22578;DHT22;11455;52.390;13.028;2023-04-01T11:55:22;12.00;1.00
22578;DHT22;11455;52.390;13.028;2023-04-01T12:21:27;11.80;1.00
22578;DHT22;11455;52.390;13.028;2023-04-01T12:31:36;12.00;1.00
22578;DHT22;11455;52.390;13.028;2023-04-01T12:42:15;11.90;99.90
22578;DHT22;11455;52.390;13.028;2023-04-01T12:58:15;11.40;1.00
22578;DHT22;11455;52.390;13.028;2023-04-01T13:16:08;11.10;1.00
22578;DHT22;11455;52.390;13.028;2023-04-01T13:21:21;11.10;1.00
22578;DHT22;11455;52.390;13.028;2023-04-01T13:23:53;11.10;1.00
22578;DHT22;11455;52.390;13.028;2023-04-01T13:29:00;11.00;1.00
22578;DHT22;11455;52.390;13.028;2023-04-01T13:31:40;11.00;1.00
22578;DHT22;11455;52.390;13.028;2023-04-01T13:39:33;10.80;1.00
22578;DHT22;11455;52.390;13.028;2023-04-01T13:49:38;10.90;1.00
22578;DHT22;11455;52.390;13.028;2023-04-01T14:04:59;10.70;1.00
22578;DHT22;11455;52.390;13.028;2023-04-01T14:18:03;10.50;1.00
22578;DHT22;11455;52.390;13.028;2023-04-01T14:20:53;10.60;1.00
22578;DHT22;11455;52.390;13.028;2023-04-01T14:23:37;10.60;1.00
22578;DHT22;11455;52.390;13.028;2023-04-01T14:39:27;10.40;1.00
22578;DHT22;11455;52.390;13.028;2023-04-01T14:44:52;10.40;1.00
22578;DHT22;11455;52.390;13.028;2023-04-01T14:47:32;10.30;1.00
22578;DHT22;11455;52.390;13.028;2023-04-01T14:50:05;10.30;1.00
22578;DHT22;11455;52.390;13.028;2023-04-01T14:52:33;10.30;1.00
22578;DHT22;11455;52.390;13.028;2023-04-01T14:55:03;10.30;1.00
22578;DHT22;11455;52.390;13.028;2023-04-01T14:57:36;10.40;1.00
22578;DHT22;11455;52.390;13.028;2023-04-01T15:02:41;10.30;1.00
22578;DHT22;11455;52.390;13.028;2023-04-01T15:05:24;10.20;1.00
22578;DHT22;11455;52.390;13.028;2023-04-01T15:18:09;10.40;1.00
22578;DHT22;11455;52.390;13.028;2023-04-01T15:33:17;10.10;1.00
22578;DHT22;11455;52.390;13.028;2023-04-01T15:38:33;9.90;99.90
22578;DHT22;11455;52.390;13.028;2023-04-01T15:43:45;9.90;1.00
22578;DHT22;11455;52.390;13.028;2023-04-01T15:49:12;10.00;1.00
22578;DHT22;11455;52.390;13.028;2023-04-01T16:02:44;10.00;99.90
22578;DHT22;11455;52.390;13.028;2023-04-01T16:04:54;9.90;99.90
22578;DHT22;11455;52.390;13.028;2023-04-01T16:15:21;9.90;99.90
22578;DHT22;11455;52.390;13.028;2023-04-01T16:20:45;10.00;99.90
22578;DHT22;11455;52.390;13.028;2023-04-01T16:25:46;10.10;99.90
22578;DHT22;11455;52.390;13.028;2023-04-01T16:38:24;10.00;99.90
22578;DHT22;11455;52.390;13.028;2023-04-01T16:43:56;9.90;99.90
22578;DHT22;11455;52.390;13.028;2023-04-01T16:46:56;9.90;99.90
22578;DHT22;11455;52.390;13.028;2023-04-01T16:49:24;9.80;99.90
22578;DHT22;11455;52.390;13.028;2023-04-01T16:54:28;9.70;99.90
22578;DHT22;11455;52.390;13.028;2023-04-01T16:56:55;9.60;99.90
22578;DHT22;11455;52.390;13.028;2023-04-01T17:02:14;9.40;99.90
22578;DHT22;11455;52.390;13.028;2023-04-01T17:04:45;9.50;1.00
22578;DHT22;11455;52.390;13.028;2023-04-01T17:07:25;9.50;99.90
22578;DHT22;11455;52.390;13.028;2023-04-01T17:20:19;9.50;99.90
22578;DHT22;11455;52.390;13.028;2023-04-01T17:22:54;9.50;99.90
22578;DHT22;11455;52.390;13.028;2023-04-01T17:25:33;9.50;99.90
22578;DHT22;11455;52.390;13.028;2023-04-01T17:30:47;9.50;99.90
22578;DHT22;11455;52.390;13.028;2023-04-01T17:43:43;9.00;99.90
22578;DHT22;11455;52.390;13.028;2023-04-01T17:48:58;8.80;99.90
22578;DHT22;11455;52.390;13.028;2023-04-01T17:51:40;8.90;99.90
22578;DHT22;11455;52.390;13.028;2023-04-01T17:59:45;8.70;99.90
22578;DHT22;11455;52.390;13.028;2023-04-01T18:09:55;8.50;99.90
22578;DHT22;11455;52.390;13.028;2023-04-01T18:17:58;8.30;99.90
22578;DHT22;11455;52.390;13.028;2023-04-01T18:22:59;8.10;99.90
22578;DHT22;11455;52.390;13.028;2023-04-01T18:25:35;8.20;99.90
22578;DHT22;11455;52.390;13.028;2023-04-01T18:30:32;8.30;99.90
22578;DHT22;11455;52.390;13.028;2023-04-01T18:33:09;8.40;99.90
22578;DHT22;11455;52.390;13.028;2023-04-01T18:35:50;8.40;99.90
22578;DHT22;11455;52.390;13.028;2023-04-01T18:38:28;8.30;99.90
22578;DHT22;11455;52.390;13.028;2023-04-01T18:41:12;8.30;99.90
22578;DHT22;11455;52.390;13.028;2023-04-01T18:43:46;8.20;99.90
22578;DHT22;11455;52.390;13.028;2023-04-01T18:53:58;8.10;99.90
22578;DHT22;11455;52.390;13.028;2023-04-01T18:58:59;8.20;99.90
22578;DHT22;11455;52.390;13.028;2023-04-01T19:01:28;8.20;99.90
22578;DHT22;11455;52.390;13.028;2023-04-01T19:04:05;8.00;99.90
22578;DHT22;11455;52.390;13.028;2023-04-01T19:06:36;8.10;99.90
22578;DHT22;11455;52.390;13.028;2023-04-01T19:09:12;8.00;99.90
22578;DHT22;11455;52.390;13.028;2023-04-01T19:11:47;8.00;99.90
22578;DHT22;11455;52.390;13.028;2023-04-01T19:14:19;8.00;99.90
22578;DHT22;11455;52.390;13.028;2023-04-01T19:16:56;7.90;99.90
22578;DHT22;11455;52.390;13.028;2023-04-01T19:19:39;7.90;99.90
22578;DHT22;11455;52.390;13.028;2023-04-01T19:45:41;7.90;99.90
22578;DHT22;11455;52.390;13.028;2023-04-01T19:50:42;7.90;99.90
22578;DHT22;11455;52.390;13.028;2023-04-01T19:53:14;7.90;99.90
22578;DHT22;11455;52.390;13.028;2023-04-01T19:55:45;7.80;99.90
22578;DHT22;11455;52.390;13.028;2023-04-01T19:58:20;7.80;99.90
22578;DHT22;11455;52.390;13.028;2023-04-01T20:00:57;7.70;99.90
22578;DHT22;11455;52.390;13.028;2023-04-01T20:03:45;7.70;99.90
22578;DHT22;11455;52.390;13.028;2023-04-01T20:11:43;7.50;99.90
22578;DHT22;11455;52.390;13.028;2023-04-01T20:19:32;7.70;99.90
22578;DHT22;11455;52.390;13.028;2023-04-01T20:21:59;7.70;99.90
22578;DHT22;11455;52.390;13.028;2023-04-01T20:24:31;7.70;99.90
22578;DHT22;11455;52.390;13.028;2023-04-01T20:27:08;7.60;99.90
22578;DHT22;11455;52.390;13.028;2023-04-01T20:50:21;7.20;99.90
22578;DHT22;11455;52.390;13.028;2023-04-01T20:52:57;7.20;99.90
22578;DHT22;11455;52.390;13.028;2023-04-01T20:58:24;7.00;99.90
22578;DHT22;11455;52.390;13.028;2023-04-01T21:03:30;7.20;99.90
22578;DHT22;11455;52.390;13.028;2023-04-01T21:06:18;7.10;99.90
22578;DHT22;11455;52.390;13.028;2023-04-01T21:11:20;7.10;99.90
22578;DHT22;11455;52.390;13.028;2023-04-01T21:26:26;7.10;99.90
22578;DHT22;11455;52.390;13.028;2023-04-01T21:39:19;6.80;99.90
22578;DHT22;11455;52.390;13.028;2023-04-01T21:55:21;7.00;99.90
22578;DHT22;11455;52.390;13.028;2023-04-01T22:05:53;6.70;99.90
22578;DHT22;11455;52.390;13.028;2023-04-01T22:11:01;6.60;99.90
22578;DHT22;11455;52.390;13.028;2023-04-01T22:24:03;6.60;99.90
22578;DHT22;11455;52.390;13.028;2023-04-01T22:26:33;6.60;99.90
22578;DHT22;11455;52.390;13.028;2023-04-01T22:31:28;6.70;99.90
22578;DHT22;11455;52.390;13.028;2023-04-01T22:36:28;6.60;99.90
22578;DHT22;11455;52.390;13.028;2023-04-01T22:44:17;6.60;99.90
22578;DHT22;11455;52.390;13.028;2023-04-01T22:49:18;6.60;99.90
22578;DHT22;11455;52.390;13.028;2023-04-01T22:56:40;6.40;99.90
22578;DHT22;11455;52.390;13.028;2023-04-01T22:59:14;6.40;99.90
22578;DHT22;11455;52.390;13.028;2023-04-01T23:01:45;6.40;99.90
22578;DHT22;11455;52.390;13.028;2023-04-01T23:04:14;6.30;99.90
22578;DHT22;11455;52.390;13.028;2023-04-01T23:06:42;6.40;99.90
22578;DHT22;11455;52.390;13.028;2023-04-01T23:12:05;6.60;99.90
22578;DHT22;11455;52.390;13.028;2023-04-01T23:14:43;6.60;99.90
22578;DHT22;11455;52.390;13.028;2023-04-01T23:22:45;6.50;99.90
22578;DHT22;11455;52.390;13.028;2023-04-01T23:27:38;6.60;99.90
22578;DHT22;11455;52.390;13.028;2023-04-01T23:30:45;6.70;99.90
22578;DHT22;11455;52.390;13.028;2023-04-01T23:32:52;6.60;99.90
22578;DHT22;11455;52.390;13.028;2023-04-01T23:35:17;6.60;99.90
22578;DHT22;11455;52.390;13.028;2023-04-01T23:37:43;6.60;99.90
22578;DHT22;11455;52.390;13.028;2023-04-01T23:40:11;6.50;99.90
22578;DHT22;11455;52.390;13.028;2023-04-01T23:42:38;6.30;99.90
22578;DHT22;11455;52.390;13.028;2023-04-01T23:45:05;6.40;99.90
22578;DHT22;11455;52.390;13.028;2023-04-01T23:47:38;6.40;99.90
22578;DHT22;11455;52.390;13.028;2023-04-01T23:50:10;6.40;99.90
22578;DHT22;11455;52.390;13.028;2023-04-01T23:52:40;6.40;99.90
22578;DHT22;11455;52.390;13.028;2023-04-01T23:57:36;6.50;99.90
